Time;durP1;ratioP1;P1;durP2;ratioP2;P2;SDS_P1;SDS_P2;PMS_P1;PMS_P2;Temp;Humidity;BMP_temperature;BMP_pressure;BME280_temperature;BME280_humidity;BME280_pressure;Samples;Min_cycle;Max_cycle;Signal;HPM_P1;HPM_P2
2021/08/31 00:00:15;;;;;;;12.98;3.95;;;;;;;18.93;68.08;102491.91;5060864;28;20220;-76
2021/08/31 00:02:41;;;;;;;10.82;6.03;;;;;;;18.63;69.42;102499.53;5043689;28;20039;-76
2021/08/31 00:05:08;;;;;;;5.68;3.60;;;;;;;19.41;67.23;102493.03;5061656;28;20244;-76
2021/08/31 00:07:34;;;;;;;7.15;4.53;;;;;;;19.08;67.16;102490.28;5059941;28;20044;-76
2021/08/31 00:09:59;;;;;;;7.32;3.67;;;;;;;18.82;69.25;102500.41;5043674;28;20350;-76
2021/08/31 00:12:25;;;;;;;7.88;3.90;;;;;;;19.21;67.84;102501.13;5060560;28;20045;-76
2021/08/31 00:14:50;;;;;;;7.15;4.00;;;;;;;18.95;68.88;102500.66;5043486;28;20016;-75
2021/08/31 00:17:17;;;;;;;11.82;3.90;;;;;;;19.51;66.66;102496.06;5060887;28;20040;-75
2021/08/31 00:19:44;;;;;;;10.15;5.20;;;;;;;18.42;70.29;102507.59;5027513;28;20075;-76
2021/08/31 00:22:09;;;;;;;9.38;4.93;;;;;;;18.37;70.73;102497.22;5061335;28;20036;-76
2021/08/31 00:24:35;;;;;;;7.00;3.58;;;;;;;18.82;69.33;102495.09;5042619;28;20047;-76
2021/08/31 00:27:00;;;;;;;6.35;3.88;;;;;;;18.36;70.57;102500.81;5061200;28;20045;-76
2021/08/31 00:29:25;;;;;;;7.47;3.67;;;;;;;19.02;68.51;102501.22;5060321;28;20086;-76
2021/08/31 00:31:51;;;;;;;7.57;3.53;;;;;;;19.31;67.41;102510.38;5061155;28;20094;-76
2021/08/31 00:34:16;;;;;;;17.40;5.82;;;;;;;17.53;72.96;102504.53;5060400;28;20059;-76
2021/08/31 00:36:42;;;;;;;16.48;5.80;;;;;;;17.80;71.80;102510.41;5061245;28;20037;-76
2021/08/31 00:39:07;;;;;;;6.63;3.42;;;;;;;19.10;67.80;102502.56;5043109;28;20212;-76
2021/08/31 00:41:36;;;;;;;9.60;4.28;;;;;;;18.89;67.83;102512.44;5060599;28;20037;-76
2021/08/31 00:44:01;;;;;;;12.48;4.72;;;;;;;18.03;71.78;102519.16;5061022;28;20103;-76
2021/08/31 00:46:26;;;;;;;12.32;5.95;;;;;;;18.48;69.23;102511.75;5060640;28;20044;-75
2021/08/31 00:48:52;;;;;;;7.53;4.68;;;;;;;18.48;69.22;102517.06;5026668;28;20221;-76
2021/08/31 00:51:20;;;;;;;11.90;5.70;;;;;;;17.73;71.74;102516.03;5042652;28;20074;-76
2021/08/31 00:53:45;;;;;;;12.90;5.03;;;;;;;18.34;69.99;102512.44;5043171;28;20063;-75
2021/08/31 00:56:11;;;;;;;9.60;4.50;;;;;;;17.97;72.07;102519.41;5022725;28;20037;-75
2021/08/31 00:58:37;;;;;;;7.07;3.97;;;;;;;19.31;67.14;102508.56;5026251;28;20021;-76
2021/08/31 01:04:26;;;;;;;5.45;3.47;;;;;;;18.54;69.75;102520.31;5056728;28;20382;-76
2021/08/31 01:06:52;;;;;;;7.32;3.47;;;;;;;19.15;67.58;102512.94;5043151;28;20039;-76
2021/08/31 01:09:22;;;;;;;8.07;4.82;;;;;;;18.66;69.41;102520.63;5058873;28;20036;-76
2021/08/31 01:11:47;;;;;;;12.68;6.13;;;;;;;18.35;70.31;102520.28;5027050;28;20051;-76
2021/08/31 01:14:13;;;;;;;7.80;3.72;;;;;;;18.75;68.92;102518.38;5041633;28;20317;-76
2021/08/31 01:16:38;;;;;;;8.40;5.18;;;;;;;18.02;69.63;102530.66;5059093;28;20132;-76
2021/08/31 01:19:04;;;;;;;9.40;4.68;;;;;;;17.96;71.75;102531.81;5061410;28;20037;-75
2021/08/31 01:21:29;;;;;;;18.60;6.38;;;;;;;18.10;70.30;102532.97;5045454;28;20067;-76
2021/08/31 01:23:55;;;;;;;11.23;5.55;;;;;;;17.47;72.00;102523.34;5013333;28;20020;-76
2021/08/31 01:26:21;;;;;;;11.23;5.60;;;;;;;18.20;70.29;102524.53;5045965;28;20033;-76
2021/08/31 01:28:46;;;;;;;14.80;4.90;;;;;;;18.31;70.20;102531.13;5064043;28;20041;-76
2021/08/31 01:31:11;;;;;;;10.52;5.72;;;;;;;18.41;69.32;102527.13;5029114;28;20100;-76
2021/08/31 01:33:37;;;;;;;10.82;3.78;;;;;;;19.16;67.15;102526.16;5013276;28;20421;-76
2021/08/31 01:36:28;;;;;;;12.68;6.80;;;;;;;18.20;70.05;102536.94;5063809;28;20040;-76
2021/08/31 01:38:56;;;;;;;11.23;4.28;;;;;;;18.48;69.95;102536.53;5041498;28;20276;-76
2021/08/31 01:41:21;;;;;;;7.72;3.80;;;;;;;19.03;68.13;102540.97;5045692;28;20228;-76
2021/08/31 01:43:47;;;;;;;7.55;4.05;;;;;;;18.16;70.95;102543.31;5063756;28;20025;-76
2021/08/31 01:46:12;;;;;;;7.55;3.67;;;;;;;17.78;71.79;102545.84;5045633;28;20372;-76
2021/08/31 01:48:38;;;;;;;6.80;4.15;;;;;;;17.94;72.33;102532.81;5025946;28;20247;-76
2021/08/31 01:51:04;;;;;;;14.18;5.95;;;;;;;17.72;71.91;102541.69;5043764;28;20056;-76
2021/08/31 01:53:29;;;;;;;6.38;4.78;;;;;;;17.93;71.29;102547.00;5063023;28;20059;-76
2021/08/31 01:55:55;;;;;;;21.13;7.65;;;;;;;17.03;74.12;102537.53;5029357;28;20028;-75
2021/08/31 01:58:20;;;;;;;9.77;5.22;;;;;;;17.74;70.98;102539.81;5062918;28;20036;-75
2021/08/31 02:00:46;;;;;;;13.43;6.82;;;;;;;16.97;74.21;102542.19;5063360;28;20082;-76
2021/08/31 02:03:12;;;;;;;9.90;4.53;;;;;;;17.79;72.69;102544.91;5063316;28;20332;-76
2021/08/31 02:05:37;;;;;;;7.65;4.70;;;;;;;17.68;72.87;102545.38;5045653;28;20051;-76
2021/08/31 02:08:03;;;;;;;15.35;7.15;;;;;;;16.48;75.55;102544.97;5063326;28;20045;-76
2021/08/31 02:10:28;;;;;;;6.60;4.35;;;;;;;17.68;71.94;102539.22;5062916;28;20044;-76
2021/08/31 02:12:53;;;;;;;7.78;4.15;;;;;;;17.61;73.18;102546.59;5021321;28;20072;-75
2021/08/31 02:15:19;;;;;;;17.20;6.53;;;;;;;17.12;74.03;102546.00;5062471;28;20088;-76
2021/08/31 02:17:44;;;;;;;7.55;3.75;;;;;;;17.75;72.81;102541.53;5063394;28;20052;-76
2021/08/31 02:20:10;;;;;;;14.88;6.72;;;;;;;16.31;76.55;102543.81;5062884;28;20029;-76
2021/08/31 02:22:36;;;;;;;10.68;5.80;;;;;;;17.05;75.58;102545.41;5028474;28;20324;-76
2021/08/31 02:25:01;;;;;;;14.30;6.28;;;;;;;17.32;72.60;102542.53;5062640;28;20036;-76
2021/08/31 02:27:27;;;;;;;13.15;6.32;;;;;;;16.95;74.49;102547.53;5062646;28;20036;-76
2021/08/31 02:29:52;;;;;;;10.13;5.07;;;;;;;17.77;72.05;102542.34;5062305;28;20025;-76
2021/08/31 02:32:18;;;;;;;10.20;5.18;;;;;;;18.25;68.80;102540.22;5028445;28;20036;-73
2021/08/31 02:34:43;;;;;;;9.57;4.93;;;;;;;17.96;70.29;102547.72;5063436;28;20028;-73
2021/08/31 02:37:09;;;;;;;9.30;5.57;;;;;;;16.87;75.05;102537.28;5028554;28;20343;-73
2021/08/31 02:39:34;;;;;;;16.48;6.95;;;;;;;16.63;74.28;102541.75;5062178;28;20024;-73
2021/08/31 02:41:59;;;;;;;13.60;6.30;;;;;;;17.45;71.98;102535.78;5023837;28;20037;-73
2021/08/31 02:44:25;;;;;;;12.77;5.82;;;;;;;17.25;72.54;102536.66;5042334;28;20412;-73
2021/08/31 02:46:50;;;;;;;4.50;3.35;;;;;;;17.80;72.32;102534.25;5060149;28;20299;-73
2021/08/31 02:49:16;;;;;;;11.27;5.97;;;;;;;17.20;72.41;102530.66;5062126;28;20348;-73
2021/08/31 02:51:41;;;;;;;10.40;5.03;;;;;;;17.06;74.89;102526.81;5061908;28;20045;-73
2021/08/31 02:54:07;;;;;;;13.63;6.32;;;;;;;16.81;73.77;102523.44;5062159;28;20045;-73
2021/08/31 02:56:32;;;;;;;7.45;4.43;;;;;;;16.98;74.81;102536.00;5044577;28;20044;-73
2021/08/31 02:58:58;;;;;;;8.27;3.85;;;;;;;17.69;72.49;102533.88;5062316;28;20339;-73
2021/08/31 03:02:04;;;;;;;8.65;5.47;;;;;;;17.49;73.08;102531.22;5044117;28;20048;-73
2021/08/31 03:04:20;;;;;;;7.53;4.68;;;;;;;17.76;71.58;102534.47;5054258;28;20052;-73
2021/08/31 03:06:46;;;;;;;14.38;6.85;;;;;;;16.31;75.20;102538.53;5062044;28;20218;-73
2021/08/31 03:09:11;;;;;;;9.93;6.30;;;;;;;15.88;76.95;102545.44;5043884;28;20056;-73
2021/08/31 03:11:37;;;;;;;12.23;5.60;;;;;;;17.28;72.73;102528.53;5043614;28;20248;-73
2021/08/31 03:14:02;;;;;;;11.05;6.30;;;;;;;17.36;72.19;102534.41;5044399;28;20052;-73
2021/08/31 03:16:27;;;;;;;12.00;5.90;;;;;;;16.86;73.62;102535.56;5061240;28;20392;-73
2021/08/31 03:18:53;;;;;;;6.97;4.80;;;;;;;17.49;71.71;102534.72;5016440;28;20089;-73
2021/08/31 03:21:18;;;;;;;15.65;6.68;;;;;;;17.65;71.35;102533.13;5049100;28;20275;-73
2021/08/31 03:23:44;;;;;;;14.68;5.90;;;;;;;16.84;74.05;102536.53;5011134;28;20025;-73
2021/08/31 03:26:09;;;;;;;10.50;5.32;;;;;;;16.50;75.42;102540.50;5043942;28;20127;-73
2021/08/31 03:28:34;;;;;;;10.32;5.00;;;;;;;16.30;75.44;102542.13;5061718;28;20045;-73
2021/08/31 03:31:00;;;;;;;9.05;5.50;;;;;;;16.69;75.79;102544.13;5043846;28;20092;-73
2021/08/31 03:33:26;;;;;;;7.93;5.00;;;;;;;17.29;73.67;102535.56;5061102;28;20074;-73
2021/08/31 03:35:51;;;;;;;12.95;6.40;;;;;;;16.14;76.46;102540.97;5007215;28;20032;-73
2021/08/31 03:38:16;;;;;;;14.00;7.28;;;;;;;15.42;78.61;102549.63;5048378;28;20078;-73
2021/08/31 03:40:42;;;;;;;15.95;7.45;;;;;;;15.36;79.68;102548.06;5027132;28;20284;-73
2021/08/31 03:43:07;;;;;;;21.30;7.95;;;;;;;14.97;81.28;102558.13;5060883;28;20275;-73
2021/08/31 03:45:33;;;;;;;14.73;7.65;;;;;;;14.62;82.34;102562.72;5060651;28;20243;-73
2021/08/31 03:47:58;;;;;;;15.02;7.40;;;;;;;14.52;82.78;102561.25;5001451;28;20049;-73
2021/08/31 03:50:24;;;;;;;11.73;6.30;;;;;;;15.58;80.57;102560.53;5040888;28;20332;-73
2021/08/31 03:52:49;;;;;;;14.98;6.38;;;;;;;15.55;78.23;102557.97;5040829;28;20025;-73
2021/08/31 03:55:15;;;;;;;16.58;7.28;;;;;;;14.93;81.39;102554.72;5023369;28;20083;-73
2021/08/31 03:57:40;;;;;;;12.60;6.95;;;;;;;15.52;78.76;102553.69;5040150;28;20048;-73
2021/08/31 04:00:06;;;;;;;15.88;6.32;;;;;;;15.51;79.68;102553.72;5040337;28;20025;-73
2021/08/31 04:02:32;;;;;;;8.32;5.32;;;;;;;16.03;78.53;102551.94;5019851;28;20077;-73
2021/08/31 04:04:57;;;;;;;13.70;7.05;;;;;;;15.23;79.52;102556.44;5034612;28;20053;-73
2021/08/31 04:07:22;;;;;;;5.35;4.40;;;;;;;15.60;80.80;102557.84;5039266;28;20045;-73
2021/08/31 04:09:48;;;;;;;5.75;3.90;;;;;;;16.94;75.56;102553.78;5040604;28;20033;-73
2021/08/31 04:12:14;;;;;;;15.65;6.50;;;;;;;16.48;75.81;102558.19;5039194;28;20048;-72
2021/08/31 04:14:39;;;;;;;16.55;6.93;;;;;;;14.95;80.38;102565.22;5020239;28;20038;-72
2021/08/31 04:17:05;;;;;;;12.35;6.95;;;;;;;14.73;81.25;102571.16;5003894;28;20073;-72
2021/08/31 04:19:30;;;;;;;11.55;6.70;;;;;;;14.78;81.15;102574.53;5020014;28;20752;-72
2021/08/31 04:21:56;;;;;;;15.93;7.50;;;;;;;15.43;78.73;102567.19;5037439;28;20029;-72
2021/08/31 04:24:21;;;;;;;14.50;7.47;;;;;;;14.67;81.97;102579.28;5040428;28;20041;-72
2021/08/31 04:26:46;;;;;;;22.20;7.35;;;;;;;14.61;81.90;102579.47;5023231;28;20025;-71
2021/08/31 04:29:12;;;;;;;8.27;4.75;;;;;;;16.63;77.01;102578.78;5023135;28;20321;-71
2021/08/31 04:31:37;;;;;;;12.57;5.47;;;;;;;16.72;76.12;102581.97;5041236;28;20025;-71
2021/08/31 04:34:02;;;;;;;18.08;7.07;;;;;;;15.60;78.32;102586.88;5040806;28;20212;-71
2021/08/31 04:36:28;;;;;;;10.68;4.72;;;;;;;16.17;77.90;102585.78;5040348;28;20037;-71
2021/08/31 04:38:53;;;;;;;11.75;6.20;;;;;;;15.91;76.77;102589.34;5041104;28;20104;-71
2021/08/31 04:41:19;;;;;;;13.18;4.93;;;;;;;17.93;74.17;102584.94;5000583;28;20026;-73
2021/08/31 04:43:44;;;;;;;10.32;4.60;;;;;;;17.63;71.59;102584.47;5033426;28;20036;-73
2021/08/31 04:46:10;;;;;;;11.13;4.55;;;;;;;18.16;75.17;102588.38;5052780;28;20069;-74
2021/08/31 04:48:36;;;;;;;8.85;4.65;;;;;;;17.50;77.80;102580.59;5037899;28;20042;-73
2021/08/31 04:51:02;;;;;;;13.73;4.22;;;;;;;17.66;76.86;102581.69;5041643;28;20033;-72
2021/08/31 04:53:27;;;;;;;14.25;5.70;;;;;;;17.15;74.66;102577.66;5037178;28;20040;-72
2021/08/31 04:55:52;;;;;;;13.52;5.80;;;;;;;17.73;73.30;102579.63;5026331;28;20099;-72
2021/08/31 04:58:18;;;;;;;24.58;5.32;;;;;;;18.95;72.01;102588.25;5026556;28;20320;-71
2021/08/31 05:00:43;;;;;;;15.75;5.13;;;;;;;19.13;71.53;102584.72;5039746;28;20041;-71
2021/08/31 05:03:09;;;;;;;18.05;5.03;;;;;;;18.56;69.98;102583.91;5038969;28;20041;-71
2021/08/31 05:05:34;;;;;;;15.75;5.45;;;;;;;17.44;74.72;102584.38;5036794;28;20264;-70
2021/08/31 05:08:00;;;;;;;14.10;4.68;;;;;;;19.65;69.47;102578.59;5033507;28;20045;-71
2021/08/31 05:10:25;;;;;;;16.58;4.10;;;;;;;19.82;68.61;102583.03;5033867;28;20371;-70
2021/08/31 05:12:51;;;;;;;12.82;4.22;;;;;;;19.82;68.61;102587.50;5018032;28;20056;-70
2021/08/31 05:15:16;;;;;;;10.25;4.10;;;;;;;19.96;67.87;102594.78;5034631;28;20040;-70
2021/08/31 05:17:42;;;;;;;18.23;5.30;;;;;;;19.21;70.31;102592.31;5040939;28;20065;-70
2021/08/31 05:20:08;;;;;;;10.80;5.43;;;;;;;17.58;72.30;102595.25;5012573;28;20191;-71
2021/08/31 05:22:33;;;;;;;21.92;6.43;;;;;;;17.41;75.80;102598.63;5038313;28;20041;-71
2021/08/31 05:25:00;;;;;;;15.98;6.65;;;;;;;17.06;74.20;102595.66;5031537;28;20352;-70
2021/08/31 05:27:26;;;;;;;21.63;5.63;;;;;;;17.73;75.31;102603.47;5038558;28;20076;-72
2021/08/31 05:29:51;;;;;;;15.00;6.85;;;;;;;16.64;75.29;102601.63;5033528;28;20033;-72
2021/08/31 05:32:17;;;;;;;18.52;6.55;;;;;;;16.56;75.26;102603.72;5044482;28;20045;-72
2021/08/31 05:34:42;;;;;;;14.05;6.68;;;;;;;16.76;74.50;102612.69;5006126;28;20072;-72
2021/08/31 05:37:08;;;;;;;12.02;6.28;;;;;;;16.38;75.17;102617.63;5023986;28;20057;-72
2021/08/31 05:39:33;;;;;;;18.02;6.72;;;;;;;16.49;75.52;102618.94;5034782;28;20115;-72
2021/08/31 05:42:01;;;;;;;16.80;6.70;;;;;;;16.48;75.06;102621.66;5051977;28;20148;-72
2021/08/31 05:44:26;;;;;;;16.00;6.20;;;;;;;16.99;73.88;102619.75;5038497;28;20313;-73
2021/08/31 05:46:52;;;;;;;11.77;5.57;;;;;;;17.04;73.03;102616.00;5036521;28;20072;-72
2021/08/31 05:49:17;;;;;;;8.82;5.32;;;;;;;17.88;71.11;102618.75;5053968;28;20405;-72
2021/08/31 05:51:42;;;;;;;16.08;4.97;;;;;;;18.59;69.43;102623.53;5059162;28;20066;-72
2021/08/31 05:54:08;;;;;;;16.27;5.03;;;;;;;19.15;66.44;102630.63;5055854;28;20071;-72
2021/08/31 05:56:33;;;;;;;15.60;6.20;;;;;;;19.20;66.17;102632.22;5042435;28;20037;-73
2021/08/31 05:58:59;;;;;;;15.65;5.80;;;;;;;19.55;65.40;102639.31;5061581;28;20340;-73
2021/08/31 06:01:24;;;;;;;10.65;4.43;;;;;;;20.12;65.37;102635.56;5058783;28;20044;-73
2021/08/31 06:03:49;;;;;;;11.55;4.05;;;;;;;20.41;64.49;102635.78;5060160;28;20045;-73
2021/08/31 06:06:16;;;;;;;18.35;6.53;;;;;;;19.92;64.13;102639.28;5067427;28;20051;-73
2021/08/31 06:08:41;;;;;;;8.02;4.25;;;;;;;20.07;65.48;102643.78;5043731;28;20109;-72
2021/08/31 06:11:06;;;;;;;9.95;4.38;;;;;;;20.33;64.34;102639.72;5061819;28;20041;-71
2021/08/31 06:13:32;;;;;;;12.13;4.15;;;;;;;20.37;64.76;102637.75;5068415;28;20198;-71
2021/08/31 06:15:57;;;;;;;12.80;4.45;;;;;;;20.69;63.13;102646.69;5058565;28;20040;-72
2021/08/31 06:18:23;;;;;;;19.58;5.40;;;;;;;19.91;65.45;102645.53;5056113;28;20051;-72
2021/08/31 06:20:48;;;;;;;12.45;5.10;;;;;;;19.99;63.68;102645.97;5062977;28;20041;-71
2021/08/31 06:23:14;;;;;;;16.60;5.30;;;;;;;19.26;65.16;102654.03;5041597;28;20037;-71
2021/08/31 06:25:39;;;;;;;10.35;5.05;;;;;;;19.49;64.37;102652.91;5060937;28;20040;-71
2021/08/31 06:28:05;;;;;;;14.73;5.68;;;;;;;20.13;61.78;102647.91;5057529;28;20379;-72
2021/08/31 06:30:30;;;;;;;15.18;5.72;;;;;;;19.87;62.41;102655.44;5059999;28;20036;-72
2021/08/31 06:32:55;;;;;;;12.05;4.97;;;;;;;20.31;61.65;102659.38;5065131;28;20049;-72
2021/08/31 06:35:21;;;;;;;16.25;4.93;;;;;;;19.82;62.63;102661.94;5060691;28;20352;-72
2021/08/31 06:37:46;;;;;;;16.48;5.13;;;;;;;20.18;63.90;102659.19;5029069;28;20356;-72
2021/08/31 06:40:12;;;;;;;11.10;4.70;;;;;;;19.64;65.53;102664.56;5055599;28;20085;-71
2021/08/31 06:42:37;;;;;;;8.43;3.67;;;;;;;20.60;62.47;102657.81;5029415;28;20089;-71
2021/08/31 06:45:03;;;;;;;6.40;4.25;;;;;;;20.29;62.12;102659.47;5056312;28;20032;-72
2021/08/31 06:47:28;;;;;;;12.70;4.60;;;;;;;20.19;62.38;102666.19;5067141;28;20075;-72
2021/08/31 06:49:54;;;;;;;8.45;3.55;;;;;;;20.96;61.17;102667.44;5061640;28;20044;-73
2021/08/31 06:52:19;;;;;;;11.63;4.10;;;;;;;20.83;61.26;102666.38;5061061;28;20125;-72
2021/08/31 06:54:45;;;;;;;19.20;5.10;;;;;;;21.33;59.83;102659.16;5055173;28;20041;-73
2021/08/31 06:57:10;;;;;;;11.77;4.18;;;;;;;21.78;58.53;102666.28;5062237;28;20040;-73
2021/08/31 06:59:35;;;;;;;21.65;4.97;;;;;;;21.85;58.76;102672.13;5056916;28;20316;-73
2021/08/31 07:02:01;;;;;;;15.40;5.50;;;;;;;21.74;59.21;102662.09;5056540;28;20340;-73
2021/08/31 07:04:26;;;;;;;15.73;4.80;;;;;;;21.91;55.65;102671.75;5057461;28;20068;-73
2021/08/31 07:06:52;;;;;;;15.18;6.05;;;;;;;22.49;55.27;102670.03;5055757;28;20033;-73
2021/08/31 07:09:17;;;;;;;11.27;4.90;;;;;;;21.96;57.80;102672.34;5042477;28;20329;-73
2021/08/31 07:11:43;;;;;;;16.67;4.68;;;;;;;22.61;56.54;102668.38;5075477;28;20264;-73
2021/08/31 07:14:08;;;;;;;16.80;5.07;;;;;;;22.16;56.12;102676.47;5056995;28;20119;-73
2021/08/31 07:16:33;;;;;;;17.05;4.82;;;;;;;22.70;56.15;102675.84;5034849;28;20100;-73
2021/08/31 07:18:59;;;;;;;13.40;4.97;;;;;;;22.25;56.90;102675.06;5055563;28;20051;-74
2021/08/31 07:21:24;;;;;;;24.63;5.07;;;;;;;22.19;58.95;102672.75;5057245;28;20037;-73
2021/08/31 07:23:50;;;;;;;13.52;4.97;;;;;;;21.88;55.66;102671.91;5056350;28;20375;-73
2021/08/31 07:26:15;;;;;;;12.15;5.30;;;;;;;20.87;58.40;102676.78;5055875;28;20032;-73
2021/08/31 07:28:40;;;;;;;24.85;5.03;;;;;;;22.42;55.66;102669.53;5043093;28;20334;-74
2021/08/31 07:31:06;;;;;;;15.30;5.18;;;;;;;21.92;58.67;102672.59;5042207;28;20066;-74
2021/08/31 07:33:31;;;;;;;23.23;5.60;;;;;;;22.36;56.80;102677.09;5056141;28;20044;-73
2021/08/31 07:35:59;;;;;;;10.75;4.97;;;;;;;21.84;57.37;102679.25;5059824;28;20045;-74
2021/08/31 07:38:25;;;;;;;21.25;4.97;;;;;;;22.93;55.44;102677.03;5045676;28;20025;-74
2021/08/31 07:40:50;;;;;;;10.27;5.00;;;;;;;21.87;58.01;102675.56;5067401;28;20063;-74
2021/08/31 07:43:16;;;;;;;15.25;5.07;;;;;;;22.98;57.70;102685.59;5047647;28;20052;-74
2021/08/31 07:45:41;;;;;;;13.95;4.85;;;;;;;22.11;54.72;102681.22;5042184;28;20042;-74
2021/08/31 07:48:07;;;;;;;12.95;4.80;;;;;;;21.90;57.01;102685.16;5037718;28;20056;-74
2021/08/31 07:50:32;;;;;;;28.02;5.32;;;;;;;22.12;60.77;102682.06;5046844;28;20043;-72
2021/08/31 07:52:58;;;;;;;12.88;4.95;;;;;;;21.21;57.55;102690.00;5036979;28;20336;-70
2021/08/31 07:55:23;;;;;;;15.98;4.65;;;;;;;21.51;56.55;102679.44;5052418;28;20075;-70
2021/08/31 07:57:48;;;;;;;12.50;4.72;;;;;;;21.18;57.16;102680.38;5062780;28;20040;-72
2021/08/31 08:00:17;;;;;;;35.92;6.10;;;;;;;22.70;58.67;102681.19;5047402;28;20097;-72
2021/08/31 08:02:42;;;;;;;;;;;;;;;23.08;57.08;102693.06;5039671;28;20418;-72
2021/08/31 08:05:09;;;;;;;19.10;5.15;;;;;;;23.11;53.03;102691.03;5066980;28;19905;-71
2021/08/31 08:07:35;;;;;;;17.75;4.93;;;;;;;22.97;52.56;102691.91;5053125;28;20025;-70
2021/08/31 08:10:00;;;;;;;14.13;4.68;;;;;;;21.56;61.22;102703.16;5038962;28;20042;-72
2021/08/31 08:12:26;;;;;;;13.18;4.07;;;;;;;22.17;55.97;102696.84;5040973;28;20040;-71
2021/08/31 08:14:51;;;;;;;12.50;4.22;;;;;;;22.18;57.37;102695.06;5061629;28;20041;-71
2021/08/31 08:17:17;;;;;;;12.73;2.72;;;;;;;21.73;58.56;102702.19;5062160;28;20325;-72
2021/08/31 08:19:43;;;;;;;10.57;3.13;;;;;;;21.64;58.10;102698.25;5040030;28;20223;-71
2021/08/31 08:22:08;;;;;;;17.33;3.47;;;;;;;21.57;58.20;102700.38;5062132;28;20040;-71
2021/08/31 08:24:34;;;;;;;15.07;3.97;;;;;;;21.67;57.59;102706.06;5058605;28;20040;-71
2021/08/31 08:27:00;;;;;;;16.58;4.82;;;;;;;21.27;58.38;102698.50;5066690;28;20029;-71
2021/08/31 08:29:26;;;;;;;15.45;3.47;;;;;;;20.96;59.45;102687.88;5041899;28;20040;-72
2021/08/31 08:31:51;;;;;;;14.30;4.55;;;;;;;21.92;57.14;102696.59;5063274;28;20040;-71
2021/08/31 08:34:16;;;;;;;11.93;3.95;;;;;;;20.92;56.41;102703.16;5069423;28;20037;-71
2021/08/31 08:36:42;;;;;;;14.45;4.38;;;;;;;22.52;54.93;102699.22;5060628;28;20068;-71
2021/08/31 08:39:07;;;;;;;24.60;5.28;;;;;;;23.53;52.88;102713.25;5045517;28;20100;-71
2021/08/31 08:41:33;;;;;;;14.93;4.72;;;;;;;23.25;52.89;102702.66;5063173;28;20048;-71
2021/08/31 08:44:00;;;;;;;12.07;4.75;;;;;;;22.27;53.72;102715.88;5067607;28;20037;-72
2021/08/31 08:46:25;;;;;;;19.70;4.80;;;;;;;23.54;51.80;102711.44;5068558;28;20044;-71
2021/08/31 08:48:51;;;;;;;18.55;4.53;;;;;;;23.62;50.34;102711.78;5067747;28;20067;-71
2021/08/31 08:51:16;;;;;;;22.55;4.95;;;;;;;23.89;53.32;102703.75;5053318;28;20028;-71
2021/08/31 08:53:42;;;;;;;25.85;5.35;;;;;;;24.22;52.35;102701.53;5075279;28;20047;-72
2021/08/31 08:56:07;;;;;;;20.90;4.90;;;;;;;24.37;51.20;102710.31;5061375;28;20079;-72
2021/08/31 08:58:33;;;;;;;19.23;4.30;;;;;;;24.11;50.25;102715.66;5062697;28;20219;-71
2021/08/31 09:01:03;;;;;;;10.43;4.35;;;;;;;23.78;52.51;102711.63;5070689;28;20036;-71
2021/08/31 09:03:30;;;;;;;14.57;4.45;;;;;;;23.48;53.35;102711.84;5060811;28;20028;-73
2021/08/31 09:06:16;;;;;;;8.85;4.10;;;;;;;23.34;50.53;102723.47;5062626;28;20040;-71
2021/08/31 09:08:54;;;;;;;25.85;5.25;;;;;;;24.71;51.12;102714.19;5042842;28;20098;-72
2021/08/31 09:11:26;;;;;;;;;;;;;;;25.54;45.73;102718.00;5067314;28;20044;-71
2021/08/31 09:13:53;;;;;;;12.05;4.72;;;;;;;22.84;51.27;102727.53;5077330;28;19924;-71
2021/08/31 09:16:22;;;;;;;29.75;5.28;;;;;;;24.39;51.78;102719.09;5046145;28;20123;-70
2021/08/31 09:18:52;;;;;;;11.95;4.68;;;;;;;24.27;48.31;102721.66;5071008;28;20033;-72
2021/08/31 09:21:25;;;;;;;10.90;5.10;;;;;;;24.17;46.87;102728.59;5044378;28;20032;-72
2021/08/31 09:23:51;;;;;;;12.68;5.18;;;;;;;23.39;49.17;102726.66;5067308;28;20036;-72
2021/08/31 09:26:19;;;;;;;22.52;5.35;;;;;;;24.84;46.21;102732.91;5062018;28;20048;-72
2021/08/31 09:28:45;;;;;;;20.33;5.25;;;;;;;24.47;52.00;102719.44;5066502;28;20056;-71
2021/08/31 09:31:17;;;;;;;13.70;5.45;;;;;;;23.43;50.23;102730.00;5052339;28;20020;-72
2021/08/31 09:33:49;;;;;;;13.13;5.25;;;;;;;23.15;50.41;102732.66;5049700;28;20044;-70
2021/08/31 09:36:22;;;;;;;31.17;6.25;;;;;;;24.43;50.98;102728.63;5066367;28;20186;-71
2021/08/31 09:38:57;;;;;;;12.45;4.70;;;;;;;24.29;48.77;102719.75;5052866;28;20084;-71
2021/08/31 09:41:37;;;;;;;25.02;5.57;;;;;;;25.56;48.85;102714.25;5057117;28;20036;-71
2021/08/31 09:44:25;;;;;;;16.35;5.18;;;;;;;25.74;47.28;102714.69;5066457;28;20120;-71
2021/08/31 09:46:58;;;;;;;10.57;5.13;;;;;;;21.66;54.24;102731.00;5059365;28;20231;-70
2021/08/31 09:49:27;;;;;;;15.13;5.05;;;;;;;21.78;52.78;102734.78;5053618;28;20263;-70
2021/08/31 09:52:05;;;;;;;10.88;5.30;;;;;;;24.46;48.04;102728.41;5072173;28;20060;-70
2021/08/31 09:54:34;;;;;;;13.90;4.50;;;;;;;23.18;48.98;102739.63;5059184;28;20021;-70
2021/08/31 09:56:59;;;;;;;12.90;5.32;;;;;;;24.23;45.79;102732.69;5046060;28;20025;-71
2021/08/31 09:59:25;;;;;;;9.13;4.68;;;;;;;24.45;47.30;102726.69;5067527;28;20036;-71
2021/08/31 10:01:53;;;;;;;10.57;5.35;;;;;;;24.66;48.01;102719.00;5066160;28;20043;-72
2021/08/31 10:04:20;;;;;;;10.23;5.28;;;;;;;22.88;51.60;102727.22;5058339;28;20043;-72
2021/08/31 10:06:45;;;;;;;6.90;4.63;;;;;;;22.08;51.70;102725.91;5043818;28;20052;-71
2021/08/31 10:09:10;;;;;;;14.05;5.35;;;;;;;23.43;46.72;102724.66;5048153;28;20211;-69
2021/08/31 10:11:36;;;;;;;12.77;4.60;;;;;;;24.29;46.24;102729.59;5077106;28;20303;-70
2021/08/31 10:14:01;;;;;;;11.30;4.78;;;;;;;26.14;45.53;102719.72;5038740;28;20040;-70
2021/08/31 10:16:27;;;;;;;7.05;4.65;;;;;;;25.99;41.66;102720.88;5058878;28;20045;-72
2021/08/31 10:18:53;;;;;;;12.40;4.78;;;;;;;23.53;47.86;102737.31;5068445;28;20056;-72
2021/08/31 10:21:18;;;;;;;15.45;5.07;;;;;;;24.38;47.46;102733.47;5048995;28;20323;-72
2021/08/31 10:23:45;;;;;;;11.30;5.63;;;;;;;22.07;51.93;102729.53;5043791;28;20024;-72
2021/08/31 10:26:33;;;;;;;14.57;5.30;;;;;;;23.99;49.74;102729.88;5057903;28;20051;-72
2021/08/31 10:29:14;;;;;;;12.55;4.78;;;;;;;22.07;52.79;102732.19;5066775;28;20035;-72
2021/08/31 10:31:40;;;;;;;11.57;5.75;;;;;;;21.51;55.43;102740.75;5060634;28;20079;-72
2021/08/31 10:34:32;;;;;;;9.85;4.45;;;;;;;23.78;51.51;102735.69;5046818;28;20071;-72
2021/08/31 10:37:05;;;;;;;10.80;5.05;;;;;;;22.14;56.26;102737.06;5061633;28;20040;-72
2021/08/31 10:39:42;;;;;;;15.27;4.82;;;;;;;22.59;55.13;102739.72;5045766;28;20434;-72
2021/08/31 10:42:11;;;;;;;12.32;4.05;;;;;;;22.98;54.15;102744.38;5051503;28;20040;-72
2021/08/31 10:44:40;;;;;;;6.28;3.47;;;;;;;22.84;54.69;102744.41;5025116;28;20116;-72
2021/08/31 10:47:13;;;;;;;10.60;5.28;;;;;;;22.56;54.32;102738.13;5044577;28;20109;-71
2021/08/31 10:49:57;;;;;;;11.60;5.68;;;;;;;22.13;55.20;102742.50;5016852;28;20079;-71
2021/08/31 10:52:32;;;;;;;16.85;6.28;;;;;;;22.79;54.44;102750.03;5072419;28;20044;-72
2021/08/31 10:54:57;;;;;;;12.02;5.03;;;;;;;22.26;55.33;102753.28;5059501;28;20044;-72
2021/08/31 10:57:35;;;;;;;11.10;5.57;;;;;;;22.20;54.43;102751.84;5066151;28;20028;-71
2021/08/31 11:00:15;;;;;;;15.43;5.70;;;;;;;21.54;56.79;102751.25;5066424;28;20032;-71
2021/08/31 11:02:47;;;;;;;14.00;6.72;;;;;;;20.92;58.66;102753.75;5053608;28;20052;-71
2021/08/31 11:05:18;;;;;;;16.98;5.82;;;;;;;22.09;56.27;102754.31;5041818;28;20224;-71
2021/08/31 11:07:47;;;;;;;11.48;4.70;;;;;;;21.50;57.32;102755.00;5039882;28;20044;-71
2021/08/31 11:10:25;;;;;;;12.15;5.03;;;;;;;21.85;57.71;102763.66;5062075;28;20318;-71
2021/08/31 11:12:51;;;;;;;;;;;;;;;23.23;53.17;102756.22;5038927;28;20040;-71
2021/08/31 11:15:25;;;;;;;;;;;;;;;22.98;54.26;102749.72;5052102;28;19942;-71
2021/08/31 11:17:51;;;;;;;;;;;;;;;22.65;53.50;102759.84;5037832;28;19917;-70
2021/08/31 11:20:21;;;;;;;;;;;;;;;23.27;53.95;102765.75;5054816;28;19958;-70
2021/08/31 11:22:48;;;;;;;;;;;;;;;23.51;53.61;102754.44;5058976;28;19916;-70